sensor_id;sensor_type;location;lat;lon;timestamp;temperature;humidity
5324;DHT22;2684;48.154;11.538;2022-09-12T00:00:48;12.00;99.90
5324;DHT22;2684;48.154;11.538;2022-09-12T00:03:15;11.90;99.90
5324;DHT22;2684;48.154;11.538;2022-09-12T00:05:42;11.80;99.90
5324;DHT22;2684;48.154;11.538;2022-09-12T00:08:10;11.90;99.90
5324;DHT22;2684;48.154;11.538;2022-09-12T00:10:39;11.90;99.90
5324;DHT22;2684;48.154;11.538;2022-09-12T00:13:07;11.90;99.90
5324;DHT22;2684;48.154;11.538;2022-09-12T00:15:37;11.90;99.90
5324;DHT22;2684;48.154;11.538;2022-09-12T00:18:04;12.00;99.90
5324;DHT22;2684;48.154;11.538;2022-09-12T00:20:31;12.00;99.90
5324;DHT22;2684;48.154;11.538;2022-09-12T00:22:58;12.00;99.90
5324;DHT22;2684;48.154;11.538;2022-09-12T00:25:25;11.90;99.90
5324;DHT22;2684;48.154;11.538;2022-09-12T00:27:56;11.90;99.90
5324;DHT22;2684;48.154;11.538;2022-09-12T00:30:23;12.00;99.90
5324;DHT22;2684;48.154;11.538;2022-09-12T00:32:50;11.90;99.90
5324;DHT22;2684;48.154;11.538;2022-09-12T00:35:19;11.90;99.90
5324;DHT22;2684;48.154;11.538;2022-09-12T00:37:46;11.80;99.90
5324;DHT22;2684;48.154;11.538;2022-09-12T00:40:12;11.80;99.90
5324;DHT22;2684;48.154;11.538;2022-09-12T00:42:39;11.80;99.90
5324;DHT22;2684;48.154;11.538;2022-09-12T00:45:20;11.80;99.90
5324;DHT22;2684;48.154;11.538;2022-09-12T00:47:48;11.80;99.90
5324;DHT22;2684;48.154;11.538;2022-09-12T00:50:16;11.80;99.90
5324;DHT22;2684;48.154;11.538;2022-09-12T00:52:46;11.80;99.90
5324;DHT22;2684;48.154;11.538;2022-09-12T00:55:17;11.80;99.90
5324;DHT22;2684;48.154;11.538;2022-09-12T00:57:50;11.70;99.90
5324;DHT22;2684;48.154;11.538;2022-09-12T01:00:22;11.70;99.90
5324;DHT22;2684;48.154;11.538;2022-09-12T01:02:52;11.60;99.90
5324;DHT22;2684;48.154;11.538;2022-09-12T01:05:21;11.60;99.90
5324;DHT22;2684;48.154;11.538;2022-09-12T01:07:49;11.60;99.90
5324;DHT22;2684;48.154;11.538;2022-09-12T01:10:16;11.60;99.90
5324;DHT22;2684;48.154;11.538;2022-09-12T01:12:44;11.50;99.90
5324;DHT22;2684;48.154;11.538;2022-09-12T01:15:11;11.50;99.90
5324;DHT22;2684;48.154;11.538;2022-09-12T01:17:49;11.40;99.90
5324;DHT22;2684;48.154;11.538;2022-09-12T01:20:45;11.40;99.90
5324;DHT22;2684;48.154;11.538;2022-09-12T01:23:43;11.30;99.90
5324;DHT22;2684;48.154;11.538;2022-09-12T01:29:18;11.30;99.90
5324;DHT22;2684;48.154;11.538;2022-09-12T01:31:58;11.40;99.90
5324;DHT22;2684;48.154;11.538;2022-09-12T01:34:35;11.40;99.90
5324;DHT22;2684;48.154;11.538;2022-09-12T01:37:12;11.40;99.90
5324;DHT22;2684;48.154;11.538;2022-09-12T01:39:49;11.40;99.90
5324;DHT22;2684;48.154;11.538;2022-09-12T01:42:25;11.30;99.90
5324;DHT22;2684;48.154;11.538;2022-09-12T01:45:04;11.20;99.90
5324;DHT22;2684;48.154;11.538;2022-09-12T01:47:39;11.30;99.90
5324;DHT22;2684;48.154;11.538;2022-09-12T01:50:08;11.20;99.90
5324;DHT22;2684;48.154;11.538;2022-09-12T01:52:42;11.30;99.90
5324;DHT22;2684;48.154;11.538;2022-09-12T01:55:14;11.30;99.90
5324;DHT22;2684;48.154;11.538;2022-09-12T01:57:45;11.20;99.90
5324;DHT22;2684;48.154;11.538;2022-09-12T02:00:15;11.10;99.90
5324;DHT22;2684;48.154;11.538;2022-09-12T02:02:48;11.10;99.90
5324;DHT22;2684;48.154;11.538;2022-09-12T02:05:21;11.10;99.90
5324;DHT22;2684;48.154;11.538;2022-09-12T02:07:52;11.10;99.90
5324;DHT22;2684;48.154;11.538;2022-09-12T02:10:23;11.10;99.90
5324;DHT22;2684;48.154;11.538;2022-09-12T02:12:54;11.20;99.90
5324;DHT22;2684;48.154;11.538;2022-09-12T02:15:27;11.20;99.90
5324;DHT22;2684;48.154;11.538;2022-09-12T02:17:57;11.20;99.90
5324;DHT22;2684;48.154;11.538;2022-09-12T02:20:28;11.20;99.90
5324;DHT22;2684;48.154;11.538;2022-09-12T02:22:56;11.20;99.90
5324;DHT22;2684;48.154;11.538;2022-09-12T02:25:24;11.20;99.90
5324;DHT22;2684;48.154;11.538;2022-09-12T02:27:55;11.10;99.90
5324;DHT22;2684;48.154;11.538;2022-09-12T02:30:23;11.20;99.90
5324;DHT22;2684;48.154;11.538;2022-09-12T02:32:59;11.20;99.90
5324;DHT22;2684;48.154;11.538;2022-09-12T02:35:33;11.10;99.90
5324;DHT22;2684;48.154;11.538;2022-09-12T02:38:07;11.20;99.90
5324;DHT22;2684;48.154;11.538;2022-09-12T02:40:35;11.20;99.90
5324;DHT22;2684;48.154;11.538;2022-09-12T02:43:04;11.20;99.90
5324;DHT22;2684;48.154;11.538;2022-09-12T02:45:32;11.10;99.90
5324;DHT22;2684;48.154;11.538;2022-09-12T02:48:04;11.10;99.90
5324;DHT22;2684;48.154;11.538;2022-09-12T02:50:32;11.10;99.90
5324;DHT22;2684;48.154;11.538;2022-09-12T02:52:59;11.00;99.90
5324;DHT22;2684;48.154;11.538;2022-09-12T02:55:30;11.00;99.90
5324;DHT22;2684;48.154;11.538;2022-09-12T02:57:59;10.90;99.90
5324;DHT22;2684;48.154;11.538;2022-09-12T03:00:27;10.90;99.90
5324;DHT22;2684;48.154;11.538;2022-09-12T03:03:13;10.90;99.90
5324;DHT22;2684;48.154;11.538;2022-09-12T03:05:49;10.90;99.90
5324;DHT22;2684;48.154;11.538;2022-09-12T03:08:58;10.90;99.90
5324;DHT22;2684;48.154;11.538;2022-09-12T03:11:47;10.90;99.90
5324;DHT22;2684;48.154;11.538;2022-09-12T03:14:25;10.90;99.90
5324;DHT22;2684;48.154;11.538;2022-09-12T03:17:05;10.90;99.90
5324;DHT22;2684;48.154;11.538;2022-09-12T03:19:42;10.90;99.90
5324;DHT22;2684;48.154;11.538;2022-09-12T03:22:14;10.80;99.90
5324;DHT22;2684;48.154;11.538;2022-09-12T03:24:50;10.80;99.90
5324;DHT22;2684;48.154;11.538;2022-09-12T03:27:23;10.70;99.90
5324;DHT22;2684;48.154;11.538;2022-09-12T03:29:52;10.60;99.90
5324;DHT22;2684;48.154;11.538;2022-09-12T03:32:19;10.60;99.90
5324;DHT22;2684;48.154;11.538;2022-09-12T03:34:47;10.70;99.90
5324;DHT22;2684;48.154;11.538;2022-09-12T03:37:14;10.70;99.90
5324;DHT22;2684;48.154;11.538;2022-09-12T03:39:41;10.60;99.90
5324;DHT22;2684;48.154;11.538;2022-09-12T03:42:07;10.50;99.90
5324;DHT22;2684;48.154;11.538;2022-09-12T03:44:34;10.40;99.90
5324;DHT22;2684;48.154;11.538;2022-09-12T03:47:01;10.40;99.90
5324;DHT22;2684;48.154;11.538;2022-09-12T03:49:28;10.40;99.90
5324;DHT22;2684;48.154;11.538;2022-09-12T03:51:56;10.40;99.90
5324;DHT22;2684;48.154;11.538;2022-09-12T03:54:23;10.40;99.90
5324;DHT22;2684;48.154;11.538;2022-09-12T03:56:49;10.40;99.90
5324;DHT22;2684;48.154;11.538;2022-09-12T03:59:17;10.30;99.90
5324;DHT22;2684;48.154;11.538;2022-09-12T04:01:43;10.30;99.90
5324;DHT22;2684;48.154;11.538;2022-09-12T04:04:10;10.30;99.90
5324;DHT22;2684;48.154;11.538;2022-09-12T04:06:37;10.30;99.90
5324;DHT22;2684;48.154;11.538;2022-09-12T04:09:05;10.20;99.90
5324;DHT22;2684;48.154;11.538;2022-09-12T04:11:32;10.20;99.90
5324;DHT22;2684;48.154;11.538;2022-09-12T04:14:00;10.20;99.90
5324;DHT22;2684;48.154;11.538;2022-09-12T04:16:27;10.10;99.90
5324;DHT22;2684;48.154;11.538;2022-09-12T04:18:53;10.10;99.90
5324;DHT22;2684;48.154;11.538;2022-09-12T04:21:20;10.10;99.90
5324;DHT22;2684;48.154;11.538;2022-09-12T04:23:47;10.10;99.90
5324;DHT22;2684;48.154;11.538;2022-09-12T04:26:17;10.00;99.90
5324;DHT22;2684;48.154;11.538;2022-09-12T04:28:44;10.10;99.90
5324;DHT22;2684;48.154;11.538;2022-09-12T04:31:14;10.10;99.90
5324;DHT22;2684;48.154;11.538;2022-09-12T04:33:42;10.00;99.90
5324;DHT22;2684;48.154;11.538;2022-09-12T04:36:11;10.00;99.90
5324;DHT22;2684;48.154;11.538;2022-09-12T04:38:42;10.00;99.90
5324;DHT22;2684;48.154;11.538;2022-09-12T04:41:10;10.00;99.90
5324;DHT22;2684;48.154;11.538;2022-09-12T04:43:39;10.00;99.90
5324;DHT22;2684;48.154;11.538;2022-09-12T04:46:07;10.00;99.90
5324;DHT22;2684;48.154;11.538;2022-09-12T04:48:34;9.90;99.90
5324;DHT22;2684;48.154;11.538;2022-09-12T04:51:11;9.80;99.90
5324;DHT22;2684;48.154;11.538;2022-09-12T04:53:39;9.90;99.90
5324;DHT22;2684;48.154;11.538;2022-09-12T04:56:07;9.90;99.90
5324;DHT22;2684;48.154;11.538;2022-09-12T04:58:35;9.90;99.90
5324;DHT22;2684;48.154;11.538;2022-09-12T05:01:07;9.90;99.90
5324;DHT22;2684;48.154;11.538;2022-09-12T05:03:34;9.80;99.90
5324;DHT22;2684;48.154;11.538;2022-09-12T05:06:04;9.90;99.90
5324;DHT22;2684;48.154;11.538;2022-09-12T05:08:32;9.90;99.90
5324;DHT22;2684;48.154;11.538;2022-09-12T05:11:01;9.90;99.90
5324;DHT22;2684;48.154;11.538;2022-09-12T05:13:28;9.90;99.90
5324;DHT22;2684;48.154;11.538;2022-09-12T05:15:55;9.90;99.90
5324;DHT22;2684;48.154;11.538;2022-09-12T05:18:23;10.00;99.90
5324;DHT22;2684;48.154;11.538;2022-09-12T05:20:51;9.90;99.90
5324;DHT22;2684;48.154;11.538;2022-09-12T05:23:17;10.00;99.90
5324;DHT22;2684;48.154;11.538;2022-09-12T05:25:48;10.00;99.90
5324;DHT22;2684;48.154;11.538;2022-09-12T05:28:17;10.10;99.90
5324;DHT22;2684;48.154;11.538;2022-09-12T05:30:44;10.10;99.90
5324;DHT22;2684;48.154;11.538;2022-09-12T05:33:11;10.10;99.90
5324;DHT22;2684;48.154;11.538;2022-09-12T05:35:39;10.10;99.90
5324;DHT22;2684;48.154;11.538;2022-09-12T05:38:06;10.20;99.90
5324;DHT22;2684;48.154;11.538;2022-09-12T05:40:34;10.20;99.90
5324;DHT22;2684;48.154;11.538;2022-09-12T05:43:00;10.30;99.90
5324;DHT22;2684;48.154;11.538;2022-09-12T05:45:29;10.30;99.90
5324;DHT22;2684;48.154;11.538;2022-09-12T05:47:56;10.30;99.90
5324;DHT22;2684;48.154;11.538;2022-09-12T05:50:23;10.40;99.90
5324;DHT22;2684;48.154;11.538;2022-09-12T05:52:51;10.40;99.90
5324;DHT22;2684;48.154;11.538;2022-09-12T05:55:19;10.50;99.90
5324;DHT22;2684;48.154;11.538;2022-09-12T05:57:47;10.50;99.90
5324;DHT22;2684;48.154;11.538;2022-09-12T06:00:15;10.50;99.90
5324;DHT22;2684;48.154;11.538;2022-09-12T06:02:42;10.60;99.90
5324;DHT22;2684;48.154;11.538;2022-09-12T06:05:08;10.70;99.90
5324;DHT22;2684;48.154;11.538;2022-09-12T06:07:36;10.70;99.90
5324;DHT22;2684;48.154;11.538;2022-09-12T06:10:04;10.90;99.90
5324;DHT22;2684;48.154;11.538;2022-09-12T06:12:31;10.90;99.90
5324;DHT22;2684;48.154;11.538;2022-09-12T06:14:58;11.00;99.90
5324;DHT22;2684;48.154;11.538;2022-09-12T06:17:25;11.00;99.90
5324;DHT22;2684;48.154;11.538;2022-09-12T06:19:52;11.10;99.90
5324;DHT22;2684;48.154;11.538;2022-09-12T06:22:19;11.20;99.90
5324;DHT22;2684;48.154;11.538;2022-09-12T06:24:46;11.20;99.90
5324;DHT22;2684;48.154;11.538;2022-09-12T06:27:14;11.30;99.90
5324;DHT22;2684;48.154;11.538;2022-09-12T06:29:41;11.40;99.90
5324;DHT22;2684;48.154;11.538;2022-09-12T06:32:08;11.50;99.90
5324;DHT22;2684;48.154;11.538;2022-09-12T06:34:36;11.60;99.90
5324;DHT22;2684;48.154;11.538;2022-09-12T06:37:03;11.70;99.90
5324;DHT22;2684;48.154;11.538;2022-09-12T06:39:30;11.80;99.90
5324;DHT22;2684;48.154;11.538;2022-09-12T06:41:57;11.90;99.90
5324;DHT22;2684;48.154;11.538;2022-09-12T06:44:25;12.00;99.90
5324;DHT22;2684;48.154;11.538;2022-09-12T06:46:52;12.00;99.90
5324;DHT22;2684;48.154;11.538;2022-09-12T06:49:18;12.10;99.90
5324;DHT22;2684;48.154;11.538;2022-09-12T06:51:45;12.20;99.90
5324;DHT22;2684;48.154;11.538;2022-09-12T06:54:13;12.30;99.90
5324;DHT22;2684;48.154;11.538;2022-09-12T06:56:41;12.50;99.90
5324;DHT22;2684;48.154;11.538;2022-09-12T06:59:08;12.60;99.90
5324;DHT22;2684;48.154;11.538;2022-09-12T07:01:36;12.70;99.90
5324;DHT22;2684;48.154;11.538;2022-09-12T07:04:04;12.80;99.90
5324;DHT22;2684;48.154;11.538;2022-09-12T07:06:35;12.90;99.90
5324;DHT22;2684;48.154;11.538;2022-09-12T07:09:04;13.00;99.90
5324;DHT22;2684;48.154;11.538;2022-09-12T07:11:33;13.10;99.90
5324;DHT22;2684;48.154;11.538;2022-09-12T07:14:02;13.30;99.90
5324;DHT22;2684;48.154;11.538;2022-09-12T07:16:30;13.40;99.90
5324;DHT22;2684;48.154;11.538;2022-09-12T07:18:59;13.60;99.90
5324;DHT22;2684;48.154;11.538;2022-09-12T07:21:28;13.70;99.90
5324;DHT22;2684;48.154;11.538;2022-09-12T07:23:55;13.80;99.90
5324;DHT22;2684;48.154;11.538;2022-09-12T07:26:23;13.90;99.90
5324;DHT22;2684;48.154;11.538;2022-09-12T07:28:50;14.00;99.90
5324;DHT22;2684;48.154;11.538;2022-09-12T07:31:19;14.10;99.90
5324;DHT22;2684;48.154;11.538;2022-09-12T07:33:47;14.20;99.90
5324;DHT22;2684;48.154;11.538;2022-09-12T07:36:17;14.40;99.90
5324;DHT22;2684;48.154;11.538;2022-09-12T07:38:44;14.50;99.90
5324;DHT22;2684;48.154;11.538;2022-09-12T07:41:12;14.60;99.90
5324;DHT22;2684;48.154;11.538;2022-09-12T07:43:39;14.60;99.90
5324;DHT22;2684;48.154;11.538;2022-09-12T07:46:07;14.80;99.90
5324;DHT22;2684;48.154;11.538;2022-09-12T07:48:34;14.90;99.90
5324;DHT22;2684;48.154;11.538;2022-09-12T07:51:04;15.00;99.90
5324;DHT22;2684;48.154;11.538;2022-09-12T07:53:34;15.10;99.90
5324;DHT22;2684;48.154;11.538;2022-09-12T07:56:02;15.20;99.90
5324;DHT22;2684;48.154;11.538;2022-09-12T07:58:30;15.30;99.90
5324;DHT22;2684;48.154;11.538;2022-09-12T08:01:01;15.30;99.90
5324;DHT22;2684;48.154;11.538;2022-09-12T08:03:28;15.40;99.90
5324;DHT22;2684;48.154;11.538;2022-09-12T08:06:02;15.60;99.90
5324;DHT22;2684;48.154;11.538;2022-09-12T08:08:28;15.60;99.90
5324;DHT22;2684;48.154;11.538;2022-09-12T08:10:57;15.80;99.90
5324;DHT22;2684;48.154;11.538;2022-09-12T08:13:24;15.90;99.90
5324;DHT22;2684;48.154;11.538;2022-09-12T08:15:51;15.90;99.90
5324;DHT22;2684;48.154;11.538;2022-09-12T08:18:22;15.90;99.90
5324;DHT22;2684;48.154;11.538;2022-09-12T08:20:55;16.00;99.90
5324;DHT22;2684;48.154;11.538;2022-09-12T08:23:22;16.10;99.90
5324;DHT22;2684;48.154;11.538;2022-09-12T08:25:49;16.20;99.90
5324;DHT22;2684;48.154;11.538;2022-09-12T08:28:17;16.30;99.90
5324;DHT22;2684;48.154;11.538;2022-09-12T08:30:44;16.30;99.90
5324;DHT22;2684;48.154;11.538;2022-09-12T08:33:11;16.40;99.90
5324;DHT22;2684;48.154;11.538;2022-09-12T08:35:38;16.50;99.90
5324;DHT22;2684;48.154;11.538;2022-09-12T08:38:04;16.60;99.90
5324;DHT22;2684;48.154;11.538;2022-09-12T08:40:32;16.70;99.90
5324;DHT22;2684;48.154;11.538;2022-09-12T08:43:14;16.80;99.90
5324;DHT22;2684;48.154;11.538;2022-09-12T08:45:53;16.90;99.90
5324;DHT22;2684;48.154;11.538;2022-09-12T08:48:21;17.00;99.90
5324;DHT22;2684;48.154;11.538;2022-09-12T08:50:47;17.20;99.90
5324;DHT22;2684;48.154;11.538;2022-09-12T08:53:19;17.30;99.90
5324;DHT22;2684;48.154;11.538;2022-09-12T08:55:51;17.40;99.90
5324;DHT22;2684;48.154;11.538;2022-09-12T08:58:21;17.40;99.90
5324;DHT22;2684;48.154;11.538;2022-09-12T09:00:57;17.50;99.90
5324;DHT22;2684;48.154;11.538;2022-09-12T09:03:46;17.60;99.90
5324;DHT22;2684;48.154;11.538;2022-09-12T09:06:24;17.70;99.90
5324;DHT22;2684;48.154;11.538;2022-09-12T09:09:01;17.60;99.90
5324;DHT22;2684;48.154;11.538;2022-09-12T09:11:43;17.60;99.90
5324;DHT22;2684;48.154;11.538;2022-09-12T09:14:41;17.70;99.90
5324;DHT22;2684;48.154;11.538;2022-09-12T09:17:20;17.70;99.90
5324;DHT22;2684;48.154;11.538;2022-09-12T09:19:55;17.80;99.90
5324;DHT22;2684;48.154;11.538;2022-09-12T09:22:31;17.90;99.90
5324;DHT22;2684;48.154;11.538;2022-09-12T09:25:05;17.90;99.90
5324;DHT22;2684;48.154;11.538;2022-09-12T09:27:35;17.90;99.90
5324;DHT22;2684;48.154;11.538;2022-09-12T09:30:07;18.00;99.90
5324;DHT22;2684;48.154;11.538;2022-09-12T09:32:40;18.20;99.90
5324;DHT22;2684;48.154;11.538;2022-09-12T09:35:15;18.20;99.90
5324;DHT22;2684;48.154;11.538;2022-09-12T09:45:28;18.60;99.90
5324;DHT22;2684;48.154;11.538;2022-09-12T09:48:00;18.70;99.90
5324;DHT22;2684;48.154;11.538;2022-09-12T09:50:29;18.70;99.90
5324;DHT22;2684;48.154;11.538;2022-09-12T09:52:57;18.80;99.90
5324;DHT22;2684;48.154;11.538;2022-09-12T09:55:29;18.90;99.90
5324;DHT22;2684;48.154;11.538;2022-09-12T09:57:57;18.90;99.90
5324;DHT22;2684;48.154;11.538;2022-09-12T10:00:29;19.10;99.90
5324;DHT22;2684;48.154;11.538;2022-09-12T10:03:20;19.20;99.90
5324;DHT22;2684;48.154;11.538;2022-09-12T10:05:50;19.30;99.90
5324;DHT22;2684;48.154;11.538;2022-09-12T10:15:16;19.20;99.90
5324;DHT22;2684;48.154;11.538;2022-09-12T10:17:44;19.30;99.90
5324;DHT22;2684;48.154;11.538;2022-09-12T10:20:31;19.30;99.90
5324;DHT22;2684;48.154;11.538;2022-09-12T10:22:59;19.60;99.90
5324;DHT22;2684;48.154;11.538;2022-09-12T10:25:27;19.80;99.90
5324;DHT22;2684;48.154;11.538;2022-09-12T10:27:56;20.00;99.90
5324;DHT22;2684;48.154;11.538;2022-09-12T10:30:24;20.10;99.90
5324;DHT22;2684;48.154;11.538;2022-09-12T10:32:55;20.20;99.90
5324;DHT22;2684;48.154;11.538;2022-09-12T10:35:26;20.00;99.90
5324;DHT22;2684;48.154;11.538;2022-09-12T10:37:58;20.10;99.90
5324;DHT22;2684;48.154;11.538;2022-09-12T10:40:28;20.20;99.90
5324;DHT22;2684;48.154;11.538;2022-09-12T10:42:58;20.20;99.90
5324;DHT22;2684;48.154;11.538;2022-09-12T10:45:28;20.30;99.90
5324;DHT22;2684;48.154;11.538;2022-09-12T10:47:56;20.40;99.90
5324;DHT22;2684;48.154;11.538;2022-09-12T10:50:27;20.50;99.90
5324;DHT22;2684;48.154;11.538;2022-09-12T10:53:13;20.40;99.90
5324;DHT22;2684;48.154;11.538;2022-09-12T10:55:43;20.50;99.90
5324;DHT22;2684;48.154;11.538;2022-09-12T10:58:38;20.50;99.90
5324;DHT22;2684;48.154;11.538;2022-09-12T11:01:15;20.60;99.90
5324;DHT22;2684;48.154;11.538;2022-09-12T11:03:56;20.40;99.90
5324;DHT22;2684;48.154;11.538;2022-09-12T11:06:34;20.50;99.90
5324;DHT22;2684;48.154;11.538;2022-09-12T11:09:12;20.50;99.90
5324;DHT22;2684;48.154;11.538;2022-09-12T11:11:51;20.50;99.90
5324;DHT22;2684;48.154;11.538;2022-09-12T11:14:40;20.60;99.90
5324;DHT22;2684;48.154;11.538;2022-09-12T11:17:28;20.70;99.90
5324;DHT22;2684;48.154;11.538;2022-09-12T11:20:13;20.70;99.90
5324;DHT22;2684;48.154;11.538;2022-09-12T11:25:51;20.80;99.90
5324;DHT22;2684;48.154;11.538;2022-09-12T11:28:30;20.80;99.90
5324;DHT22;2684;48.154;11.538;2022-09-12T11:31:11;20.80;99.90
5324;DHT22;2684;48.154;11.538;2022-09-12T11:33:46;21.10;99.90
5324;DHT22;2684;48.154;11.538;2022-09-12T11:36:25;21.30;99.90
5324;DHT22;2684;48.154;11.538;2022-09-12T11:39:00;21.50;99.90
5324;DHT22;2684;48.154;11.538;2022-09-12T11:41:33;21.70;99.90
5324;DHT22;2684;48.154;11.538;2022-09-12T11:44:08;21.70;99.90
5324;DHT22;2684;48.154;11.538;2022-09-12T11:46:37;21.60;99.90
5324;DHT22;2684;48.154;11.538;2022-09-12T11:49:12;21.60;99.90
5324;DHT22;2684;48.154;11.538;2022-09-12T11:51:44;21.70;99.90
5324;DHT22;2684;48.154;11.538;2022-09-12T11:54:20;21.70;99.90
5324;DHT22;2684;48.154;11.538;2022-09-12T11:56:54;21.70;99.90
5324;DHT22;2684;48.154;11.538;2022-09-12T11:59:31;21.70;99.90
5324;DHT22;2684;48.154;11.538;2022-09-12T12:02:01;21.90;99.90
5324;DHT22;2684;48.154;11.538;2022-09-12T12:04:34;22.10;99.90
5324;DHT22;2684;48.154;11.538;2022-09-12T12:07:05;22.30;99.90
5324;DHT22;2684;48.154;11.538;2022-09-12T12:09:32;22.40;99.90
5324;DHT22;2684;48.154;11.538;2022-09-12T12:12:04;22.60;99.90
5324;DHT22;2684;48.154;11.538;2022-09-12T12:14:39;22.70;99.90
5324;DHT22;2684;48.154;11.538;2022-09-12T12:17:13;22.70;99.90
5324;DHT22;2684;48.154;11.538;2022-09-12T12:19:41;22.70;99.90
5324;DHT22;2684;48.154;11.538;2022-09-12T12:22:15;22.50;99.90
5324;DHT22;2684;48.154;11.538;2022-09-12T12:25:02;22.60;99.90
5324;DHT22;2684;48.154;11.538;2022-09-12T12:27:49;22.50;99.90
5324;DHT22;2684;48.154;11.538;2022-09-12T12:33:54;22.70;99.90
5324;DHT22;2684;48.154;11.538;2022-09-12T12:36:46;22.90;99.90
5324;DHT22;2684;48.154;11.538;2022-09-12T12:48:53;25.80;99.90
5324;DHT22;2684;48.154;11.538;2022-09-12T12:51:36;26.40;99.90
5324;DHT22;2684;48.154;11.538;2022-09-12T12:54:04;26.80;99.90
5324;DHT22;2684;48.154;11.538;2022-09-12T12:56:38;26.80;99.90
5324;DHT22;2684;48.154;11.538;2022-09-12T12:59:15;27.20;99.90
5324;DHT22;2684;48.154;11.538;2022-09-12T13:01:50;27.60;99.90
5324;DHT22;2684;48.154;11.538;2022-09-12T13:04:20;27.50;99.90
5324;DHT22;2684;48.154;11.538;2022-09-12T13:06:57;27.20;99.90
5324;DHT22;2684;48.154;11.538;2022-09-12T13:09:29;27.50;99.90
5324;DHT22;2684;48.154;11.538;2022-09-12T13:11:59;27.10;99.90
5324;DHT22;2684;48.154;11.538;2022-09-12T13:14:48;27.20;99.90
5324;DHT22;2684;48.154;11.538;2022-09-12T13:17:22;28.00;99.90
5324;DHT22;2684;48.154;11.538;2022-09-12T13:19:53;27.30;99.90
5324;DHT22;2684;48.154;11.538;2022-09-12T13:22:21;27.30;99.90
5324;DHT22;2684;48.154;11.538;2022-09-12T13:24:49;26.90;99.90
5324;DHT22;2684;48.154;11.538;2022-09-12T13:27:19;27.00;99.90
5324;DHT22;2684;48.154;11.538;2022-09-12T13:29:47;27.50;99.90
5324;DHT22;2684;48.154;11.538;2022-09-12T13:32:15;27.80;99.90
5324;DHT22;2684;48.154;11.538;2022-09-12T13:34:54;27.70;99.90
5324;DHT22;2684;48.154;11.538;2022-09-12T13:37:39;27.60;99.90
5324;DHT22;2684;48.154;11.538;2022-09-12T13:40:26;28.40;99.90
5324;DHT22;2684;48.154;11.538;2022-09-12T13:43:07;28.50;99.90
5324;DHT22;2684;48.154;11.538;2022-09-12T13:45:36;29.30;99.90
5324;DHT22;2684;48.154;11.538;2022-09-12T13:48:09;29.90;98.00
5324;DHT22;2684;48.154;11.538;2022-09-12T13:50:41;30.70;97.30
5324;DHT22;2684;48.154;11.538;2022-09-12T13:53:12;31.60;95.40
5324;DHT22;2684;48.154;11.538;2022-09-12T13:55:42;31.10;95.00
5324;DHT22;2684;48.154;11.538;2022-09-12T13:58:20;30.40;94.60
5324;DHT22;2684;48.154;11.538;2022-09-12T14:01:00;29.20;95.70
5324;DHT22;2684;48.154;11.538;2022-09-12T14:03:29;28.50;96.00
5324;DHT22;2684;48.154;11.538;2022-09-12T14:06:15;28.20;96.50
5324;DHT22;2684;48.154;11.538;2022-09-12T14:08:45;27.70;96.90
5324;DHT22;2684;48.154;11.538;2022-09-12T14:11:20;28.30;95.90
5324;DHT22;2684;48.154;11.538;2022-09-12T14:13:49;28.80;95.60
5324;DHT22;2684;48.154;11.538;2022-09-12T14:16:17;29.80;94.60
5324;DHT22;2684;48.154;11.538;2022-09-12T14:18:46;29.40;95.40
5324;DHT22;2684;48.154;11.538;2022-09-12T14:21:25;28.80;95.10
5324;DHT22;2684;48.154;11.538;2022-09-12T14:23:56;29.40;94.40
5324;DHT22;2684;48.154;11.538;2022-09-12T14:26:24;30.00;93.70
5324;DHT22;2684;48.154;11.538;2022-09-12T14:28:54;30.50;93.60
5324;DHT22;2684;48.154;11.538;2022-09-12T14:31:23;30.90;93.50
5324;DHT22;2684;48.154;11.538;2022-09-12T14:33:55;31.20;93.10
5324;DHT22;2684;48.154;11.538;2022-09-12T14:36:25;31.20;91.90
5324;DHT22;2684;48.154;11.538;2022-09-12T14:38:54;30.50;91.80
5324;DHT22;2684;48.154;11.538;2022-09-12T14:41:25;29.90;91.70
5324;DHT22;2684;48.154;11.538;2022-09-12T14:43:55;29.60;92.50
5324;DHT22;2684;48.154;11.538;2022-09-12T14:46:25;29.70;92.20
5324;DHT22;2684;48.154;11.538;2022-09-12T14:48:55;29.40;92.50
5324;DHT22;2684;48.154;11.538;2022-09-12T14:51:27;29.60;92.80
5324;DHT22;2684;48.154;11.538;2022-09-12T14:53:56;29.30;93.30
5324;DHT22;2684;48.154;11.538;2022-09-12T14:56:37;29.00;93.10
5324;DHT22;2684;48.154;11.538;2022-09-12T14:59:26;28.70;93.20
5324;DHT22;2684;48.154;11.538;2022-09-12T15:02:25;28.50;93.40
5324;DHT22;2684;48.154;11.538;2022-09-12T15:04:53;28.10;93.40
5324;DHT22;2684;48.154;11.538;2022-09-12T15:07:28;28.10;93.80
5324;DHT22;2684;48.154;11.538;2022-09-12T15:09:57;28.70;93.10
5324;DHT22;2684;48.154;11.538;2022-09-12T15:12:24;28.70;94.00
5324;DHT22;2684;48.154;11.538;2022-09-12T15:14:52;28.70;93.90
5324;DHT22;2684;48.154;11.538;2022-09-12T15:17:18;28.70;93.90
5324;DHT22;2684;48.154;11.538;2022-09-12T15:19:45;28.70;93.90
5324;DHT22;2684;48.154;11.538;2022-09-12T15:22:12;28.70;94.10
5324;DHT22;2684;48.154;11.538;2022-09-12T15:24:40;29.30;93.00
5324;DHT22;2684;48.154;11.538;2022-09-12T15:27:09;30.00;92.80
5324;DHT22;2684;48.154;11.538;2022-09-12T15:29:36;30.50;92.00
5324;DHT22;2684;48.154;11.538;2022-09-12T15:32:03;30.60;91.10
5324;DHT22;2684;48.154;11.538;2022-09-12T15:34:30;30.00;92.10
5324;DHT22;2684;48.154;11.538;2022-09-12T15:36:57;29.60;91.90
5324;DHT22;2684;48.154;11.538;2022-09-12T15:39:24;29.80;91.90
5324;DHT22;2684;48.154;11.538;2022-09-12T15:41:53;29.80;91.40
5324;DHT22;2684;48.154;11.538;2022-09-12T15:44:20;29.10;92.00
5324;DHT22;2684;48.154;11.538;2022-09-12T15:46:48;28.80;92.30
5324;DHT22;2684;48.154;11.538;2022-09-12T15:49:15;28.80;92.40
5324;DHT22;2684;48.154;11.538;2022-09-12T15:51:41;29.20;92.00
5324;DHT22;2684;48.154;11.538;2022-09-12T15:54:10;29.80;91.60
5324;DHT22;2684;48.154;11.538;2022-09-12T15:56:39;30.30;91.90
5324;DHT22;2684;48.154;11.538;2022-09-12T15:59:07;30.20;91.10
5324;DHT22;2684;48.154;11.538;2022-09-12T16:01:34;29.60;91.60
5324;DHT22;2684;48.154;11.538;2022-09-12T16:04:01;29.60;91.80
5324;DHT22;2684;48.154;11.538;2022-09-12T16:06:28;29.90;91.90
5324;DHT22;2684;48.154;11.538;2022-09-12T16:08:58;30.20;91.80
5324;DHT22;2684;48.154;11.538;2022-09-12T16:11:26;30.70;91.40
5324;DHT22;2684;48.154;11.538;2022-09-12T16:13:54;31.00;90.60
5324;DHT22;2684;48.154;11.538;2022-09-12T16:16:22;30.20;90.60
5324;DHT22;2684;48.154;11.538;2022-09-12T16:25:37;27.10;93.40
5324;DHT22;2684;48.154;11.538;2022-09-12T16:28:05;26.90;94.80
5324;DHT22;2684;48.154;11.538;2022-09-12T16:30:32;26.90;94.40
5324;DHT22;2684;48.154;11.538;2022-09-12T16:33:00;26.90;94.70
5324;DHT22;2684;48.154;11.538;2022-09-12T16:35:27;27.10;95.20
5324;DHT22;2684;48.154;11.538;2022-09-12T16:37:56;26.70;95.40
5324;DHT22;2684;48.154;11.538;2022-09-12T16:40:23;26.50;95.80
5324;DHT22;2684;48.154;11.538;2022-09-12T16:42:49;25.80;96.80
5324;DHT22;2684;48.154;11.538;2022-09-12T16:45:16;25.00;97.80
5324;DHT22;2684;48.154;11.538;2022-09-12T16:47:43;24.10;99.00
5324;DHT22;2684;48.154;11.538;2022-09-12T16:50:11;23.50;99.90
5324;DHT22;2684;48.154;11.538;2022-09-12T16:52:38;23.00;99.90